sensor_id;sensor_type;location;lat;lon;timestamp;temperature;humidity
42187;DHT22;27858;51.414;0.018;2023-04-08T00:00:27;8.00;99.90
42187;DHT22;27858;51.414;0.018;2023-04-08T00:02:54;8.10;99.90
42187;DHT22;27858;51.414;0.018;2023-04-08T00:05:21;8.00;99.90
42187;DHT22;27858;51.414;0.018;2023-04-08T00:07:48;8.00;99.90
42187;DHT22;27858;51.414;0.018;2023-04-08T00:10:14;7.90;99.90
42187;DHT22;27858;51.414;0.018;2023-04-08T00:12:41;7.90;99.90
42187;DHT22;27858;51.414;0.018;2023-04-08T00:15:08;7.80;99.90
42187;DHT22;27858;51.414;0.018;2023-04-08T00:17:35;7.80;99.90
42187;DHT22;27858;51.414;0.018;2023-04-08T00:20:03;7.90;99.90
42187;DHT22;27858;51.414;0.018;2023-04-08T00:22:31;7.90;99.90
42187;DHT22;27858;51.414;0.018;2023-04-08T00:24:58;7.80;99.90
42187;DHT22;27858;51.414;0.018;2023-04-08T00:27:25;7.80;99.90
42187;DHT22;27858;51.414;0.018;2023-04-08T00:29:52;7.80;99.90
42187;DHT22;27858;51.414;0.018;2023-04-08T00:32:18;7.80;99.90
42187;DHT22;27858;51.414;0.018;2023-04-08T00:34:45;7.70;99.90
42187;DHT22;27858;51.414;0.018;2023-04-08T00:37:12;7.70;99.90
42187;DHT22;27858;51.414;0.018;2023-04-08T00:39:39;7.70;99.90
42187;DHT22;27858;51.414;0.018;2023-04-08T00:42:06;7.70;99.90
42187;DHT22;27858;51.414;0.018;2023-04-08T00:44:32;7.60;99.90
42187;DHT22;27858;51.414;0.018;2023-04-08T00:46:59;7.50;99.90
42187;DHT22;27858;51.414;0.018;2023-04-08T00:49:26;7.50;99.90
42187;DHT22;27858;51.414;0.018;2023-04-08T00:51:53;7.60;99.90
42187;DHT22;27858;51.414;0.018;2023-04-08T00:54:21;7.60;99.90
42187;DHT22;27858;51.414;0.018;2023-04-08T00:56:48;7.60;99.90
42187;DHT22;27858;51.414;0.018;2023-04-08T00:59:16;7.60;99.90
42187;DHT22;27858;51.414;0.018;2023-04-08T01:01:54;7.60;99.90
42187;DHT22;27858;51.414;0.018;2023-04-08T01:07:06;7.50;99.90
42187;DHT22;27858;51.414;0.018;2023-04-08T01:09:38;7.50;99.90
42187;DHT22;27858;51.414;0.018;2023-04-08T01:12:07;7.50;99.90
42187;DHT22;27858;51.414;0.018;2023-04-08T01:14:38;7.50;99.90
42187;DHT22;27858;51.414;0.018;2023-04-08T01:17:08;7.50;99.90
42187;DHT22;27858;51.414;0.018;2023-04-08T01:19:38;7.50;99.90
42187;DHT22;27858;51.414;0.018;2023-04-08T01:25:04;7.50;99.90
42187;DHT22;27858;51.414;0.018;2023-04-08T01:27:32;7.40;99.90
42187;DHT22;27858;51.414;0.018;2023-04-08T01:30:01;7.40;99.90
42187;DHT22;27858;51.414;0.018;2023-04-08T01:32:30;7.40;99.90
42187;DHT22;27858;51.414;0.018;2023-04-08T01:34:58;7.40;99.90
42187;DHT22;27858;51.414;0.018;2023-04-08T01:37:27;7.40;99.90
42187;DHT22;27858;51.414;0.018;2023-04-08T01:39:55;7.30;99.90
42187;DHT22;27858;51.414;0.018;2023-04-08T01:42:24;7.30;99.90
42187;DHT22;27858;51.414;0.018;2023-04-08T01:44:55;7.40;99.90
42187;DHT22;27858;51.414;0.018;2023-04-08T01:47:23;7.40;99.90
42187;DHT22;27858;51.414;0.018;2023-04-08T01:49:52;7.40;99.90
42187;DHT22;27858;51.414;0.018;2023-04-08T01:52:22;7.40;99.90
42187;DHT22;27858;51.414;0.018;2023-04-08T01:54:51;7.40;99.90
42187;DHT22;27858;51.414;0.018;2023-04-08T01:57:27;7.40;99.90
42187;DHT22;27858;51.414;0.018;2023-04-08T01:59:59;7.40;99.90
42187;DHT22;27858;51.414;0.018;2023-04-08T02:02:26;7.30;99.90
42187;DHT22;27858;51.414;0.018;2023-04-08T02:04:54;7.30;99.90
42187;DHT22;27858;51.414;0.018;2023-04-08T02:07:21;7.40;99.90
42187;DHT22;27858;51.414;0.018;2023-04-08T02:09:49;7.30;99.90
42187;DHT22;27858;51.414;0.018;2023-04-08T02:12:16;7.40;99.90
42187;DHT22;27858;51.414;0.018;2023-04-08T02:14:43;7.40;99.90
42187;DHT22;27858;51.414;0.018;2023-04-08T02:17:13;7.40;99.90
42187;DHT22;27858;51.414;0.018;2023-04-08T02:19:52;7.40;99.90
42187;DHT22;27858;51.414;0.018;2023-04-08T02:24:58;7.40;99.90
42187;DHT22;27858;51.414;0.018;2023-04-08T02:27:28;7.30;99.90
42187;DHT22;27858;51.414;0.018;2023-04-08T02:29:56;7.30;99.90
42187;DHT22;27858;51.414;0.018;2023-04-08T02:32:25;7.30;99.90
42187;DHT22;27858;51.414;0.018;2023-04-08T02:34:53;7.30;99.90
42187;DHT22;27858;51.414;0.018;2023-04-08T02:37:20;7.30;99.90
42187;DHT22;27858;51.414;0.018;2023-04-08T02:39:47;7.30;99.90
42187;DHT22;27858;51.414;0.018;2023-04-08T02:42:13;7.30;99.90
42187;DHT22;27858;51.414;0.018;2023-04-08T02:44:40;7.30;99.90
42187;DHT22;27858;51.414;0.018;2023-04-08T02:47:07;7.20;99.90
42187;DHT22;27858;51.414;0.018;2023-04-08T02:49:34;7.10;99.90
42187;DHT22;27858;51.414;0.018;2023-04-08T02:52:01;7.10;99.90
42187;DHT22;27858;51.414;0.018;2023-04-08T02:54:28;7.10;99.90
42187;DHT22;27858;51.414;0.018;2023-04-08T02:56:54;7.10;99.90
42187;DHT22;27858;51.414;0.018;2023-04-08T02:59:21;7.10;99.90
42187;DHT22;27858;51.414;0.018;2023-04-08T03:01:48;7.00;99.90
42187;DHT22;27858;51.414;0.018;2023-04-08T03:04:15;6.90;99.90
42187;DHT22;27858;51.414;0.018;2023-04-08T03:06:42;6.80;99.90
42187;DHT22;27858;51.414;0.018;2023-04-08T03:09:08;6.70;99.90
42187;DHT22;27858;51.414;0.018;2023-04-08T03:11:35;6.70;99.90
42187;DHT22;27858;51.414;0.018;2023-04-08T03:14:02;6.70;99.90
42187;DHT22;27858;51.414;0.018;2023-04-08T03:16:28;6.60;99.90
42187;DHT22;27858;51.414;0.018;2023-04-08T03:18:56;6.60;99.90
42187;DHT22;27858;51.414;0.018;2023-04-08T03:21:23;6.60;99.90
42187;DHT22;27858;51.414;0.018;2023-04-08T03:23:50;6.60;99.90
42187;DHT22;27858;51.414;0.018;2023-04-08T03:26:17;6.60;99.90
42187;DHT22;27858;51.414;0.018;2023-04-08T03:28:43;6.60;99.90
42187;DHT22;27858;51.414;0.018;2023-04-08T03:31:10;6.60;99.90
42187;DHT22;27858;51.414;0.018;2023-04-08T03:33:37;6.50;99.90
42187;DHT22;27858;51.414;0.018;2023-04-08T03:36:04;6.40;99.90
42187;DHT22;27858;51.414;0.018;2023-04-08T03:38:32;6.30;99.90
42187;DHT22;27858;51.414;0.018;2023-04-08T03:40:59;6.40;99.90
42187;DHT22;27858;51.414;0.018;2023-04-08T03:43:25;6.30;99.90
42187;DHT22;27858;51.414;0.018;2023-04-08T03:45:53;6.30;99.90
42187;DHT22;27858;51.414;0.018;2023-04-08T03:48:21;6.30;99.90
42187;DHT22;27858;51.414;0.018;2023-04-08T03:50:48;6.20;99.90
42187;DHT22;27858;51.414;0.018;2023-04-08T03:53:15;6.20;99.90
42187;DHT22;27858;51.414;0.018;2023-04-08T03:55:41;6.10;99.90
42187;DHT22;27858;51.414;0.018;2023-04-08T03:58:08;6.20;99.90
42187;DHT22;27858;51.414;0.018;2023-04-08T04:00:35;6.00;99.90
42187;DHT22;27858;51.414;0.018;2023-04-08T04:03:02;6.00;99.90
42187;DHT22;27858;51.414;0.018;2023-04-08T04:05:29;6.10;99.90
42187;DHT22;27858;51.414;0.018;2023-04-08T04:07:56;6.10;99.90
42187;DHT22;27858;51.414;0.018;2023-04-08T04:10:24;6.10;99.90
42187;DHT22;27858;51.414;0.018;2023-04-08T04:12:51;6.00;99.90
42187;DHT22;27858;51.414;0.018;2023-04-08T04:15:17;6.00;99.90
42187;DHT22;27858;51.414;0.018;2023-04-08T04:17:47;6.10;99.90
42187;DHT22;27858;51.414;0.018;2023-04-08T04:20:14;6.10;99.90
42187;DHT22;27858;51.414;0.018;2023-04-08T04:22:40;6.10;99.90
42187;DHT22;27858;51.414;0.018;2023-04-08T04:25:08;6.00;99.90
42187;DHT22;27858;51.414;0.018;2023-04-08T04:27:35;6.00;99.90
42187;DHT22;27858;51.414;0.018;2023-04-08T04:30:02;5.90;99.90
42187;DHT22;27858;51.414;0.018;2023-04-08T04:32:30;5.90;99.90
42187;DHT22;27858;51.414;0.018;2023-04-08T04:34:57;5.80;99.90
42187;DHT22;27858;51.414;0.018;2023-04-08T04:37:23;5.80;99.90
42187;DHT22;27858;51.414;0.018;2023-04-08T04:39:51;5.80;99.90
42187;DHT22;27858;51.414;0.018;2023-04-08T04:42:18;5.80;99.90
42187;DHT22;27858;51.414;0.018;2023-04-08T04:44:45;5.80;99.90
42187;DHT22;27858;51.414;0.018;2023-04-08T04:47:12;5.80;99.90
42187;DHT22;27858;51.414;0.018;2023-04-08T04:49:38;5.80;99.90
42187;DHT22;27858;51.414;0.018;2023-04-08T04:52:05;5.90;99.90
42187;DHT22;27858;51.414;0.018;2023-04-08T04:54:33;5.90;99.90
42187;DHT22;27858;51.414;0.018;2023-04-08T04:56:59;5.90;99.90
42187;DHT22;27858;51.414;0.018;2023-04-08T04:59:26;5.90;99.90
42187;DHT22;27858;51.414;0.018;2023-04-08T05:01:53;5.90;99.90
42187;DHT22;27858;51.414;0.018;2023-04-08T05:04:24;5.90;99.90
42187;DHT22;27858;51.414;0.018;2023-04-08T05:06:51;5.90;99.90
42187;DHT22;27858;51.414;0.018;2023-04-08T05:09:17;5.70;99.90
42187;DHT22;27858;51.414;0.018;2023-04-08T05:11:44;5.70;99.90
42187;DHT22;27858;51.414;0.018;2023-04-08T05:14:11;5.70;99.90
42187;DHT22;27858;51.414;0.018;2023-04-08T05:16:38;5.70;99.90
42187;DHT22;27858;51.414;0.018;2023-04-08T05:19:05;5.70;99.90
42187;DHT22;27858;51.414;0.018;2023-04-08T05:21:31;5.70;99.90
42187;DHT22;27858;51.414;0.018;2023-04-08T05:23:58;5.70;99.90
42187;DHT22;27858;51.414;0.018;2023-04-08T05:26:25;5.70;99.90
42187;DHT22;27858;51.414;0.018;2023-04-08T05:28:51;5.60;99.90
42187;DHT22;27858;51.414;0.018;2023-04-08T05:31:19;5.60;99.90
42187;DHT22;27858;51.414;0.018;2023-04-08T05:33:46;5.50;99.90
42187;DHT22;27858;51.414;0.018;2023-04-08T05:36:13;5.50;99.90
42187;DHT22;27858;51.414;0.018;2023-04-08T05:38:40;5.50;99.90
42187;DHT22;27858;51.414;0.018;2023-04-08T05:41:09;5.50;99.90
42187;DHT22;27858;51.414;0.018;2023-04-08T05:43:36;5.50;99.90
42187;DHT22;27858;51.414;0.018;2023-04-08T05:46:07;5.50;99.90
42187;DHT22;27858;51.414;0.018;2023-04-08T05:48:35;5.50;99.90
42187;DHT22;27858;51.414;0.018;2023-04-08T05:51:02;5.50;99.90
42187;DHT22;27858;51.414;0.018;2023-04-08T05:53:29;5.50;99.90
42187;DHT22;27858;51.414;0.018;2023-04-08T05:55:55;5.50;99.90
42187;DHT22;27858;51.414;0.018;2023-04-08T05:58:22;5.50;99.90
42187;DHT22;27858;51.414;0.018;2023-04-08T06:00:49;5.50;99.90
42187;DHT22;27858;51.414;0.018;2023-04-08T06:03:15;5.50;99.90
42187;DHT22;27858;51.414;0.018;2023-04-08T06:05:46;5.50;99.90
42187;DHT22;27858;51.414;0.018;2023-04-08T06:08:13;5.60;99.90
42187;DHT22;27858;51.414;0.018;2023-04-08T06:10:39;5.70;99.90
42187;DHT22;27858;51.414;0.018;2023-04-08T06:13:06;5.60;99.90
42187;DHT22;27858;51.414;0.018;2023-04-08T06:15:33;5.50;99.90
42187;DHT22;27858;51.414;0.018;2023-04-08T06:18:00;5.60;99.90
42187;DHT22;27858;51.414;0.018;2023-04-08T06:20:27;5.70;99.90
42187;DHT22;27858;51.414;0.018;2023-04-08T06:22:53;5.70;99.90
42187;DHT22;27858;51.414;0.018;2023-04-08T06:25:20;5.80;99.90
42187;DHT22;27858;51.414;0.018;2023-04-08T06:27:47;5.90;99.90
42187;DHT22;27858;51.414;0.018;2023-04-08T06:30:14;6.00;99.90
42187;DHT22;27858;51.414;0.018;2023-04-08T06:32:42;6.10;99.90
42187;DHT22;27858;51.414;0.018;2023-04-08T06:35:08;6.10;99.90
42187;DHT22;27858;51.414;0.018;2023-04-08T06:37:35;6.10;99.90
42187;DHT22;27858;51.414;0.018;2023-04-08T06:40:05;6.20;99.90
42187;DHT22;27858;51.414;0.018;2023-04-08T06:42:32;6.30;99.90
42187;DHT22;27858;51.414;0.018;2023-04-08T06:44:59;6.30;99.90
42187;DHT22;27858;51.414;0.018;2023-04-08T06:47:26;6.40;99.90
42187;DHT22;27858;51.414;0.018;2023-04-08T06:49:53;6.60;99.90
42187;DHT22;27858;51.414;0.018;2023-04-08T06:52:20;6.70;99.90
42187;DHT22;27858;51.414;0.018;2023-04-08T06:54:47;6.70;99.90
42187;DHT22;27858;51.414;0.018;2023-04-08T06:57:13;6.80;99.90
42187;DHT22;27858;51.414;0.018;2023-04-08T06:59:40;6.90;99.90
42187;DHT22;27858;51.414;0.018;2023-04-08T07:02:07;7.00;99.90
42187;DHT22;27858;51.414;0.018;2023-04-08T07:04:34;7.10;99.90
42187;DHT22;27858;51.414;0.018;2023-04-08T07:07:01;7.20;99.90
42187;DHT22;27858;51.414;0.018;2023-04-08T07:09:27;7.20;99.90
42187;DHT22;27858;51.414;0.018;2023-04-08T07:11:54;7.40;99.90
42187;DHT22;27858;51.414;0.018;2023-04-08T07:14:21;7.40;99.90
42187;DHT22;27858;51.414;0.018;2023-04-08T07:16:48;7.40;99.90
42187;DHT22;27858;51.414;0.018;2023-04-08T07:19:14;7.50;99.90
42187;DHT22;27858;51.414;0.018;2023-04-08T07:21:41;7.70;99.90
42187;DHT22;27858;51.414;0.018;2023-04-08T07:24:08;7.80;99.90
42187;DHT22;27858;51.414;0.018;2023-04-08T07:26:35;7.90;99.90
42187;DHT22;27858;51.414;0.018;2023-04-08T07:29:01;8.00;99.90
42187;DHT22;27858;51.414;0.018;2023-04-08T07:31:28;8.10;99.90
42187;DHT22;27858;51.414;0.018;2023-04-08T07:33:55;8.20;99.90
42187;DHT22;27858;51.414;0.018;2023-04-08T07:36:22;8.30;99.90
42187;DHT22;27858;51.414;0.018;2023-04-08T07:38:49;8.40;99.90
42187;DHT22;27858;51.414;0.018;2023-04-08T07:41:16;8.50;99.90
42187;DHT22;27858;51.414;0.018;2023-04-08T07:43:42;8.60;99.90
42187;DHT22;27858;51.414;0.018;2023-04-08T07:46:09;8.70;99.90
42187;DHT22;27858;51.414;0.018;2023-04-08T07:48:36;8.70;99.90
42187;DHT22;27858;51.414;0.018;2023-04-08T07:51:04;8.80;99.90
42187;DHT22;27858;51.414;0.018;2023-04-08T07:53:35;8.90;99.90
42187;DHT22;27858;51.414;0.018;2023-04-08T07:56:02;8.90;99.90
42187;DHT22;27858;51.414;0.018;2023-04-08T07:58:35;8.90;99.90
42187;DHT22;27858;51.414;0.018;2023-04-08T08:01:02;9.00;99.90
42187;DHT22;27858;51.414;0.018;2023-04-08T08:03:29;9.10;99.90
42187;DHT22;27858;51.414;0.018;2023-04-08T08:05:59;9.20;99.90
42187;DHT22;27858;51.414;0.018;2023-04-08T08:08:26;9.20;99.90
42187;DHT22;27858;51.414;0.018;2023-04-08T08:10:52;9.30;99.90
42187;DHT22;27858;51.414;0.018;2023-04-08T08:13:19;9.40;99.90
42187;DHT22;27858;51.414;0.018;2023-04-08T08:15:51;9.50;99.90
42187;DHT22;27858;51.414;0.018;2023-04-08T08:18:19;9.60;99.90
42187;DHT22;27858;51.414;0.018;2023-04-08T08:20:46;9.60;99.90
42187;DHT22;27858;51.414;0.018;2023-04-08T08:23:13;9.70;99.90
42187;DHT22;27858;51.414;0.018;2023-04-08T08:25:39;9.90;99.90
42187;DHT22;27858;51.414;0.018;2023-04-08T08:28:06;9.90;99.90
42187;DHT22;27858;51.414;0.018;2023-04-08T08:30:33;10.00;99.90
42187;DHT22;27858;51.414;0.018;2023-04-08T08:33:00;10.00;99.90
42187;DHT22;27858;51.414;0.018;2023-04-08T08:35:27;10.10;99.90
42187;DHT22;27858;51.414;0.018;2023-04-08T08:37:53;10.20;99.90
42187;DHT22;27858;51.414;0.018;2023-04-08T08:40:20;10.20;99.90
42187;DHT22;27858;51.414;0.018;2023-04-08T08:42:51;10.20;99.90
42187;DHT22;27858;51.414;0.018;2023-04-08T08:45:20;10.10;99.90
42187;DHT22;27858;51.414;0.018;2023-04-08T08:47:47;10.30;99.90
42187;DHT22;27858;51.414;0.018;2023-04-08T08:50:17;10.40;99.90
42187;DHT22;27858;51.414;0.018;2023-04-08T08:52:48;10.40;99.90
42187;DHT22;27858;51.414;0.018;2023-04-08T08:55:18;10.60;99.90
42187;DHT22;27858;51.414;0.018;2023-04-08T08:58:06;10.70;99.90
42187;DHT22;27858;51.414;0.018;2023-04-08T09:00:40;10.80;99.90
42187;DHT22;27858;51.414;0.018;2023-04-08T09:03:18;10.90;99.90
42187;DHT22;27858;51.414;0.018;2023-04-08T09:05:55;10.90;99.90
42187;DHT22;27858;51.414;0.018;2023-04-08T09:08:29;11.00;99.90
42187;DHT22;27858;51.414;0.018;2023-04-08T09:11:16;11.00;99.90
42187;DHT22;27858;51.414;0.018;2023-04-08T09:13:44;11.10;99.90
42187;DHT22;27858;51.414;0.018;2023-04-08T09:16:15;11.00;99.90
42187;DHT22;27858;51.414;0.018;2023-04-08T09:18:44;11.10;99.90
42187;DHT22;27858;51.414;0.018;2023-04-08T09:21:13;11.20;99.90
42187;DHT22;27858;51.414;0.018;2023-04-08T09:23:42;11.30;99.90
42187;DHT22;27858;51.414;0.018;2023-04-08T09:26:09;11.40;99.90
42187;DHT22;27858;51.414;0.018;2023-04-08T09:28:37;11.50;99.90
42187;DHT22;27858;51.414;0.018;2023-04-08T09:31:25;11.60;99.90
42187;DHT22;27858;51.414;0.018;2023-04-08T09:33:57;11.70;99.90
42187;DHT22;27858;51.414;0.018;2023-04-08T09:36:25;11.80;99.90
42187;DHT22;27858;51.414;0.018;2023-04-08T09:38:55;11.90;99.90
42187;DHT22;27858;51.414;0.018;2023-04-08T09:41:22;12.00;99.90
42187;DHT22;27858;51.414;0.018;2023-04-08T09:43:53;12.00;99.90
42187;DHT22;27858;51.414;0.018;2023-04-08T09:46:39;12.10;99.90
42187;DHT22;27858;51.414;0.018;2023-04-08T09:49:26;12.10;99.90
42187;DHT22;27858;51.414;0.018;2023-04-08T09:55:02;12.10;99.90
42187;DHT22;27858;51.414;0.018;2023-04-08T09:57:51;12.10;99.90
42187;DHT22;27858;51.414;0.018;2023-04-08T10:00:25;12.20;99.90
42187;DHT22;27858;51.414;0.018;2023-04-08T10:03:09;12.10;99.90
42187;DHT22;27858;51.414;0.018;2023-04-08T10:05:40;12.20;99.90
42187;DHT22;27858;51.414;0.018;2023-04-08T10:08:07;12.30;99.90
42187;DHT22;27858;51.414;0.018;2023-04-08T10:10:35;12.20;99.90
42187;DHT22;27858;51.414;0.018;2023-04-08T10:13:06;12.40;99.90
42187;DHT22;27858;51.414;0.018;2023-04-08T10:15:34;12.60;99.90
42187;DHT22;27858;51.414;0.018;2023-04-08T10:23:06;12.90;41.40
42187;DHT22;27858;51.414;0.018;2023-04-08T10:25:37;13.10;15.50
42187;DHT22;27858;51.414;0.018;2023-04-08T10:30:40;13.20;1.00
42187;DHT22;27858;51.414;0.018;2023-04-08T10:33:13;13.40;1.00
42187;DHT22;27858;51.414;0.018;2023-04-08T10:38:33;13.40;1.00
42187;DHT22;27858;51.414;0.018;2023-04-08T10:41:01;13.50;1.00
42187;DHT22;27858;51.414;0.018;2023-04-08T10:43:35;13.60;99.90
42187;DHT22;27858;51.414;0.018;2023-04-08T10:46:03;13.70;99.90
42187;DHT22;27858;51.414;0.018;2023-04-08T10:48:30;13.90;99.90
42187;DHT22;27858;51.414;0.018;2023-04-08T10:50:59;13.90;99.90
42187;DHT22;27858;51.414;0.018;2023-04-08T10:53:37;14.00;99.90
42187;DHT22;27858;51.414;0.018;2023-04-08T10:58:52;14.10;99.90
42187;DHT22;27858;51.414;0.018;2023-04-08T11:01:19;14.20;99.90
42187;DHT22;27858;51.414;0.018;2023-04-08T11:03:47;14.30;99.90
42187;DHT22;27858;51.414;0.018;2023-04-08T11:06:15;14.20;99.90
42187;DHT22;27858;51.414;0.018;2023-04-08T11:08:43;14.40;99.90
42187;DHT22;27858;51.414;0.018;2023-04-08T11:11:10;14.50;99.90
42187;DHT22;27858;51.414;0.018;2023-04-08T11:13:40;14.50;99.90
42187;DHT22;27858;51.414;0.018;2023-04-08T11:16:20;14.60;99.90
42187;DHT22;27858;51.414;0.018;2023-04-08T11:18:47;14.60;99.90
42187;DHT22;27858;51.414;0.018;2023-04-08T11:21:17;14.60;99.90
42187;DHT22;27858;51.414;0.018;2023-04-08T11:23:51;14.60;99.90
42187;DHT22;27858;51.414;0.018;2023-04-08T11:26:24;14.70;99.90
42187;DHT22;27858;51.414;0.018;2023-04-08T11:28:51;14.80;99.90
42187;DHT22;27858;51.414;0.018;2023-04-08T11:31:20;14.80;99.90
42187;DHT22;27858;51.414;0.018;2023-04-08T11:33:55;14.90;99.90
42187;DHT22;27858;51.414;0.018;2023-04-08T11:36:22;14.90;99.90
42187;DHT22;27858;51.414;0.018;2023-04-08T11:38:53;14.90;99.90
42187;DHT22;27858;51.414;0.018;2023-04-08T11:41:45;14.90;99.90
42187;DHT22;27858;51.414;0.018;2023-04-08T11:44:15;15.10;99.90
42187;DHT22;27858;51.414;0.018;2023-04-08T11:46:52;15.10;99.90
42187;DHT22;27858;51.414;0.018;2023-04-08T11:49:44;15.10;99.90
42187;DHT22;27858;51.414;0.018;2023-04-08T11:52:17;15.00;99.90
42187;DHT22;27858;51.414;0.018;2023-04-08T11:54:47;15.00;99.90
42187;DHT22;27858;51.414;0.018;2023-04-08T11:57:30;15.00;99.90
42187;DHT22;27858;51.414;0.018;2023-04-08T11:59:58;14.90;99.90
42187;DHT22;27858;51.414;0.018;2023-04-08T12:02:26;14.70;99.90
42187;DHT22;27858;51.414;0.018;2023-04-08T12:04:54;14.80;99.90
42187;DHT22;27858;51.414;0.018;2023-04-08T12:07:22;14.90;99.90
42187;DHT22;27858;51.414;0.018;2023-04-08T12:09:49;14.90;99.90
42187;DHT22;27858;51.414;0.018;2023-04-08T12:12:16;14.90;99.90
42187;DHT22;27858;51.414;0.018;2023-04-08T12:14:47;14.90;99.90
42187;DHT22;27858;51.414;0.018;2023-04-08T12:17:14;14.90;99.90
42187;DHT22;27858;51.414;0.018;2023-04-08T12:19:44;14.90;99.90
42187;DHT22;27858;51.414;0.018;2023-04-08T12:22:17;14.90;99.90
42187;DHT22;27858;51.414;0.018;2023-04-08T12:24:45;14.90;99.90
42187;DHT22;27858;51.414;0.018;2023-04-08T12:27:13;15.00;99.90
42187;DHT22;27858;51.414;0.018;2023-04-08T12:29:48;15.10;99.90
42187;DHT22;27858;51.414;0.018;2023-04-08T12:32:16;15.20;99.90
42187;DHT22;27858;51.414;0.018;2023-04-08T12:34:48;15.30;99.90
42187;DHT22;27858;51.414;0.018;2023-04-08T12:37:24;15.40;99.90
42187;DHT22;27858;51.414;0.018;2023-04-08T12:39:57;15.40;99.90
42187;DHT22;27858;51.414;0.018;2023-04-08T12:42:30;15.60;99.90
42187;DHT22;27858;51.414;0.018;2023-04-08T12:45:02;15.50;99.90
42187;DHT22;27858;51.414;0.018;2023-04-08T12:47:29;15.70;99.90
42187;DHT22;27858;51.414;0.018;2023-04-08T12:50:00;15.80;99.90
42187;DHT22;27858;51.414;0.018;2023-04-08T12:52:31;15.70;99.90
42187;DHT22;27858;51.414;0.018;2023-04-08T12:55:01;15.70;99.90
42187;DHT22;27858;51.414;0.018;2023-04-08T12:57:29;15.80;99.90
42187;DHT22;27858;51.414;0.018;2023-04-08T12:59:59;16.00;99.90
42187;DHT22;27858;51.414;0.018;2023-04-08T13:02:30;15.90;99.90
42187;DHT22;27858;51.414;0.018;2023-04-08T13:04:58;16.00;99.90
42187;DHT22;27858;51.414;0.018;2023-04-08T13:07:25;15.90;99.90
42187;DHT22;27858;51.414;0.018;2023-04-08T13:10:04;16.00;99.90
42187;DHT22;27858;51.414;0.018;2023-04-08T13:12:35;16.20;99.90
42187;DHT22;27858;51.414;0.018;2023-04-08T13:15:09;16.40;99.90
42187;DHT22;27858;51.414;0.018;2023-04-08T13:17:36;16.20;99.90
42187;DHT22;27858;51.414;0.018;2023-04-08T13:20:13;16.20;99.90
42187;DHT22;27858;51.414;0.018;2023-04-08T13:22:52;16.10;99.90
42187;DHT22;27858;51.414;0.018;2023-04-08T13:25:21;16.00;99.90
42187;DHT22;27858;51.414;0.018;2023-04-08T13:27:48;15.90;99.90
42187;DHT22;27858;51.414;0.018;2023-04-08T13:30:15;16.50;99.90
42187;DHT22;27858;51.414;0.018;2023-04-08T13:32:43;16.90;99.90
42187;DHT22;27858;51.414;0.018;2023-04-08T13:35:16;16.80;99.90
42187;DHT22;27858;51.414;0.018;2023-04-08T13:37:43;16.50;99.90
42187;DHT22;27858;51.414;0.018;2023-04-08T13:40:10;16.70;99.90
42187;DHT22;27858;51.414;0.018;2023-04-08T13:42:38;17.10;99.90
42187;DHT22;27858;51.414;0.018;2023-04-08T13:45:05;17.20;99.90
42187;DHT22;27858;51.414;0.018;2023-04-08T13:47:32;17.00;99.90
42187;DHT22;27858;51.414;0.018;2023-04-08T13:50:03;17.00;99.90
42187;DHT22;27858;51.414;0.018;2023-04-08T13:52:31;16.80;99.90
42187;DHT22;27858;51.414;0.018;2023-04-08T13:55:00;16.70;99.90
42187;DHT22;27858;51.414;0.018;2023-04-08T13:57:27;16.60;99.90
42187;DHT22;27858;51.414;0.018;2023-04-08T13:59:54;16.50;99.90
42187;DHT22;27858;51.414;0.018;2023-04-08T14:02:21;16.40;99.90
42187;DHT22;27858;51.414;0.018;2023-04-08T14:04:48;16.50;99.90
42187;DHT22;27858;51.414;0.018;2023-04-08T14:07:15;16.90;99.90
42187;DHT22;27858;51.414;0.018;2023-04-08T14:09:42;17.10;99.90
42187;DHT22;27858;51.414;0.018;2023-04-08T14:12:09;17.60;99.90
42187;DHT22;27858;51.414;0.018;2023-04-08T14:14:36;18.00;99.90
42187;DHT22;27858;51.414;0.018;2023-04-08T14:17:03;18.40;99.90
42187;DHT22;27858;51.414;0.018;2023-04-08T14:19:30;18.40;99.90
42187;DHT22;27858;51.414;0.018;2023-04-08T14:22:03;18.00;99.90
42187;DHT22;27858;51.414;0.018;2023-04-08T14:24:31;18.00;99.90
42187;DHT22;27858;51.414;0.018;2023-04-08T14:26:58;17.90;99.90
42187;DHT22;27858;51.414;0.018;2023-04-08T14:29:26;18.50;99.90
42187;DHT22;27858;51.414;0.018;2023-04-08T14:31:53;18.70;99.90
42187;DHT22;27858;51.414;0.018;2023-04-08T14:34:23;18.60;99.90
42187;DHT22;27858;51.414;0.018;2023-04-08T14:36:51;18.30;99.90
42187;DHT22;27858;51.414;0.018;2023-04-08T14:39:21;18.00;99.90
42187;DHT22;27858;51.414;0.018;2023-04-08T14:41:51;17.70;99.90
42187;DHT22;27858;51.414;0.018;2023-04-08T14:44:20;17.60;99.90
42187;DHT22;27858;51.414;0.018;2023-04-08T14:46:53;17.30;99.90
42187;DHT22;27858;51.414;0.018;2023-04-08T14:49:23;17.30;99.90
42187;DHT22;27858;51.414;0.018;2023-04-08T14:51:50;17.30;99.90
42187;DHT22;27858;51.414;0.018;2023-04-08T14:54:18;17.60;99.90
42187;DHT22;27858;51.414;0.018;2023-04-08T14:56:45;18.30;99.90
42187;DHT22;27858;51.414;0.018;2023-04-08T14:59:12;18.80;99.90
42187;DHT22;27858;51.414;0.018;2023-04-08T15:01:39;19.00;99.90
42187;DHT22;27858;51.414;0.018;2023-04-08T15:04:06;18.50;99.90
42187;DHT22;27858;51.414;0.018;2023-04-08T15:06:33;18.10;99.90
42187;DHT22;27858;51.414;0.018;2023-04-08T15:09:00;18.00;99.90
42187;DHT22;27858;51.414;0.018;2023-04-08T15:11:27;17.80;99.90
42187;DHT22;27858;51.414;0.018;2023-04-08T15:13:54;17.70;99.90
42187;DHT22;27858;51.414;0.018;2023-04-08T15:16:20;17.40;99.90
42187;DHT22;27858;51.414;0.018;2023-04-08T15:18:47;17.20;99.90
42187;DHT22;27858;51.414;0.018;2023-04-08T15:21:14;17.10;99.90
42187;DHT22;27858;51.414;0.018;2023-04-08T15:23:41;16.90;99.90
42187;DHT22;27858;51.414;0.018;2023-04-08T15:26:09;16.80;99.90
42187;DHT22;27858;51.414;0.018;2023-04-08T15:28:36;16.70;99.90
42187;DHT22;27858;51.414;0.018;2023-04-08T15:31:04;16.60;99.90
42187;DHT22;27858;51.414;0.018;2023-04-08T15:33:31;16.50;99.90
42187;DHT22;27858;51.414;0.018;2023-04-08T15:36:01;16.40;99.90
42187;DHT22;27858;51.414;0.018;2023-04-08T15:38:29;16.20;99.90
42187;DHT22;27858;51.414;0.018;2023-04-08T15:40:59;16.20;99.90
42187;DHT22;27858;51.414;0.018;2023-04-08T15:43:26;16.20;99.90
42187;DHT22;27858;51.414;0.018;2023-04-08T15:45:52;16.10;99.90
42187;DHT22;27858;51.414;0.018;2023-04-08T15:48:19;16.10;99.90
42187;DHT22;27858;51.414;0.018;2023-04-08T15:50:46;16.10;99.90
42187;DHT22;27858;51.414;0.018;2023-04-08T15:53:13;16.10;99.90
42187;DHT22;27858;51.414;0.018;2023-04-08T15:55:40;16.00;99.90
42187;DHT22;27858;51.414;0.018;2023-04-08T15:58:13;16.00;99.90
42187;DHT22;27858;51.414;0.018;2023-04-08T16:00:39;15.90;99.90
42187;DHT22;27858;51.414;0.018;2023-04-08T16:03:07;15.90;99.90
42187;DHT22;27858;51.414;0.018;2023-04-08T16:05:37;16.00;99.90
42187;DHT22;27858;51.414;0.018;2023-04-08T16:08:07;16.00;99.90
42187;DHT22;27858;51.414;0.018;2023-04-08T16:10:34;16.20;99.90
42187;DHT22;27858;51.414;0.018;2023-04-08T16:13:01;16.90;99.90